»·PEaware :: N698J KVNY-KAVX

N698J :: KVNY-KAVX

FLIGHT INFORMATION

Flight Status: Arrived
Operator: Privately registered:
United States
More flights under this callsign
Pilot: Ahmad S. (5672)
Aircraft: BEECH AIRCRAFT BARON
(BE58)
More flights by this aircraft type
Origin: KVNY Van Nuys
United States
Destination: KAVX Catalina
United States
More flights between these airports :: More routes between these airports
Route:
File this flight plan on PilotEdge
Remarks:
Altitude:
(Current/Filed)
3,500ft
Speed:
(Current/Filed)
175kts
Departed: 20-Feb-21 11:45 AM
Arrived: 20-Feb-21 12:12 PM
Distance/Time
Traveled:
49nm/0:27
Distance/Time
To Go:
Arrived

Flight Plot

Page will automatically refresh every two minutes.

Flight plan parsing failed; only flown route is shown


Map Options




Map Legend


Flown Route
Filed Route
Departure Airport
Arrival Airport
Navaid (VOR, NDB)
Fix

Horizontal Profiles

Position Reports

Time Latitude Longitude Heading Altitude Ground
Speed
20-Feb-21 11:25 34.218026 -118.496513 59 805ft 0kts
20-Feb-21 11:26 34.218026 -118.496513 59 805ft 0kts
20-Feb-21 11:27 34.218026 -118.496513 59 805ft 0kts
20-Feb-21 11:28 34.218026 -118.496513 59 805ft 0kts
20-Feb-21 11:29 34.218026 -118.496513 59 805ft 0kts
20-Feb-21 11:30 34.218026 -118.496513 59 805ft 0kts
20-Feb-21 11:31 34.218026 -118.496513 59 805ft 0kts
20-Feb-21 11:32 34.218026 -118.496513 59 805ft 0kts
20-Feb-21 11:33 34.218026 -118.496513 59 805ft 0kts
20-Feb-21 11:34 34.218026 -118.496513 59 805ft 0kts
20-Feb-21 11:35 34.218026 -118.496513 59 805ft 0kts
20-Feb-21 11:36 34.217615 -118.495890 103 803ft 0kts
20-Feb-21 11:37 34.217197 -118.492689 109 799ft 10kts
20-Feb-21 11:38 34.212341 -118.491777 175 790ft 21kts
20-Feb-21 11:39 34.206022 -118.491206 175 775ft 27kts
20-Feb-21 11:40 34.198688 -118.490180 175 751ft 32kts
20-Feb-21 11:42 34.197150 -118.489956 129 749ft 0kts
20-Feb-21 11:43 34.197150 -118.489956 129 749ft 0kts
20-Feb-21 11:44 34.197050 -118.489407 82 749ft 7kts
20-Feb-21 11:45 34.221367 -118.491708 352 1865ft 135kts
20-Feb-21 11:46 34.214360 -118.521756 178 2462ft 166kts
20-Feb-21 11:47 34.170289 -118.515703 172 2488ft 142kts
20-Feb-21 11:48 34.133318 -118.507147 162 2512ft 134kts
20-Feb-21 11:49 34.103068 -118.518733 189 2504ft 129kts
20-Feb-21 11:50 34.069853 -118.510244 145 2487ft 137kts
20-Feb-21 11:51 34.038328 -118.482033 140 2493ft 145kts
20-Feb-21 11:52 34.006546 -118.453369 141 2486ft 146kts
20-Feb-21 11:53 33.974318 -118.424741 142 2491ft 146kts
20-Feb-21 11:54 33.941666 -118.396369 142 2489ft 147kts
20-Feb-21 11:55 33.908675 -118.368158 145 2489ft 146kts
20-Feb-21 11:56 33.870216 -118.354703 180 2491ft 146kts
20-Feb-21 11:57 33.821833 -118.360814 187 2949ft 203kts
20-Feb-21 11:58 33.764944 -118.367981 187 2984ft 209kts
20-Feb-21 11:59 33.707333 -118.375821 186 2989ft 209kts
20-Feb-21 12:00 33.651081 -118.383238 186 2989ft 206kts
20-Feb-21 12:01 33.593518 -118.391155 187 2990ft 209kts
20-Feb-21 12:02 33.535605 -118.398515 188 3007ft 209kts
20-Feb-21 12:03 33.480403 -118.405821 188 3003ft 180kts
20-Feb-21 12:04 33.438267 -118.412762 198 2619ft 127kts
20-Feb-21 12:04 33.419049 -118.433752 231 2620ft 109kts
20-Feb-21 12:05 33.399525 -118.452412 168 2133ft 95kts
20-Feb-21 12:07 33.391582 -118.425621 49 1948ft 112kts
20-Feb-21 12:08 33.424303 -118.396510 325 2894ft 121kts
20-Feb-21 12:08 33.413419 -118.425060 254 2532ft 119kts
20-Feb-21 12:09 33.398121 -118.444443 122 2099ft 109kts
20-Feb-21 12:11 33.404997 -118.415937 55 1616ft 47kts
20-Feb-21 12:11 33.407204 -118.411421 193 1569ft 7kts
20-Feb-21 12:12 33.406576 -118.412399 232 1581ft 8kts
20-Feb-21 12:13 33.404782 -118.415209 178 1615ft 0kts
20-Feb-21 12:14 33.403416 -118.416062 267 1618ft 6kts
20-Feb-21 12:15 33.403071 -118.415963 44 1618ft 0kts
20-Feb-21 12:16 33.403071 -118.415963 44 1618ft 0kts
20-Feb-21 12:17 33.403071 -118.415963 44 1618ft 0kts
20-Feb-21 12:18 33.403071 -118.415963 44 1618ft 0kts
20-Feb-21 12:19 33.403071 -118.415963 44 1618ft 0kts
20-Feb-21 12:20 33.403071 -118.415963 44 1618ft 0kts
20-Feb-21 12:21 33.403071 -118.415963 44 1618ft 0kts
20-Feb-21 12:22 33.403071 -118.415963 44 1618ft 0kts
20-Feb-21 12:23 33.403071 -118.415963 44 1618ft 0kts
20-Feb-21 12:24 33.403071 -118.415963 44 1618ft 0kts
20-Feb-21 12:25 33.403071 -118.415963 44 1618ft 0kts

Navigation Log

Ident Type
Flight plan parsing failed, navigation log unavailable